Time;durP1;ratioP1;P1;durP2;ratioP2;P2;SDS_P1;SDS_P2;PMS_P1;PMS_P2;Temp;Humidity;BMP_temperature;BMP_pressure;BME280_temperature;BME280_humidity;BME280_pressure;Samples;Min_cycle;Max_cycle;Signal;HPM_P1;HPM_P2
2024/04/03 00:01:09;;;;;;;4.65;1.60;;;11.80;99.90;;;;;;4159135;28;20037;-68
2024/04/03 00:03:10;;;;;;;1.35;1.10;;;11.80;99.90;;;;;;4161080;28;20053;-68
2024/04/03 00:05:11;;;;;;;2.55;1.10;;;11.80;99.90;;;;;;4158996;28;20037;-69
2024/04/03 00:07:12;;;;;;;3.25;1.58;;;11.80;99.90;;;;;;4155748;28;20045;-68
2024/04/03 00:09:12;;;;;;;2.05;0.98;;;11.80;99.90;;;;;;4161270;28;20079;-68
2024/04/03 00:11:13;;;;;;;1.98;1.17;;;11.70;99.90;;;;;;4158702;28;20520;-68
2024/04/03 00:13:13;;;;;;;3.38;1.73;;;11.80;99.90;;;;;;4161632;28;20095;-68
2024/04/03 00:15:14;;;;;;;2.22;0.90;;;11.70;99.90;;;;;;4159321;28;20401;-68
2024/04/03 00:17:14;;;;;;;3.30;1.35;;;11.70;99.90;;;;;;4160321;28;20053;-68
2024/04/03 00:19:15;;;;;;;4.55;1.38;;;11.70;99.90;;;;;;4161413;28;20033;-68
2024/04/03 00:21:15;;;;;;;2.15;1.40;;;11.70;99.90;;;;;;4158669;28;20494;-68
2024/04/03 00:23:16;;;;;;;2.67;1.10;;;11.80;99.90;;;;;;4159778;28;20075;-68
2024/04/03 00:25:20;;;;;;;5.00;1.25;;;11.70;99.90;;;;;;4159600;28;20048;-68
2024/04/03 00:27:21;;;;;;;4.60;1.40;;;11.70;99.90;;;;;;4160882;28;20036;-68
2024/04/03 00:29:21;;;;;;;4.63;1.60;;;11.70;99.90;;;;;;4161373;28;20493;-68
2024/04/03 00:31:22;;;;;;;4.25;1.60;;;11.70;99.90;;;;;;4157881;28;20034;-67
2024/04/03 00:33:22;;;;;;;3.85;1.40;;;11.80;99.90;;;;;;4159737;28;20505;-67
2024/04/03 00:35:23;;;;;;;3.80;1.40;;;11.70;99.90;;;;;;4158125;28;20133;-68
2024/04/03 00:37:23;;;;;;;3.75;1.13;;;11.70;99.90;;;;;;4159144;28;20066;-68
2024/04/03 00:39:24;;;;;;;3.97;1.40;;;11.70;99.90;;;;;;4161246;28;20040;-68
2024/04/03 00:41:26;;;;;;;3.03;1.60;;;11.80;99.90;;;;;;4159816;28;20121;-68
2024/04/03 00:43:28;;;;;;;2.53;1.23;;;11.70;99.90;;;;;;4160309;28;20036;-67
2024/04/03 00:45:29;;;;;;;3.45;1.33;;;11.70;99.90;;;;;;4160155;28;21169;-68
2024/04/03 00:47:29;;;;;;;3.17;0.90;;;11.70;99.90;;;;;;4159404;28;20410;-68
2024/04/03 00:49:30;;;;;;;3.78;1.40;;;11.70;99.90;;;;;;4156321;28;20040;-68
2024/04/03 00:51:32;;;;;;;3.90;1.85;;;11.80;99.90;;;;;;4159335;28;20026;-68
2024/04/03 00:53:33;;;;;;;2.37;1.07;;;11.80;99.90;;;;;;4159090;28;20042;-68
2024/04/03 00:55:34;;;;;;;2.17;1.00;;;11.80;99.90;;;;;;4157970;28;20083;-68
2024/04/03 00:57:35;;;;;;;5.43;1.60;;;11.70;99.90;;;;;;4159403;28;20037;-68
2024/04/03 00:59:35;;;;;;;4.95;1.25;;;11.70;99.90;;;;;;4160096;28;20100;-68
2024/04/03 01:01:36;;;;;;;5.85;1.50;;;11.80;99.90;;;;;;4159767;28;20033;-68
2024/04/03 01:03:37;;;;;;;2.75;1.20;;;11.70;99.90;;;;;;4160795;28;20028;-68
2024/04/03 01:05:37;;;;;;;3.10;1.27;;;11.70;99.90;;;;;;4157881;28;20037;-68
2024/04/03 01:07:38;;;;;;;3.55;1.30;;;11.70;99.90;;;;;;4159383;28;20037;-68
2024/04/03 01:09:38;;;;;;;4.80;1.30;;;11.70;99.90;;;;;;4159645;28;20132;-68
2024/04/03 01:11:39;;;;;;;4.30;1.30;;;11.80;99.90;;;;;;4159816;28;20095;-68
2024/04/03 01:13:40;;;;;;;3.92;1.40;;;11.80;99.90;;;;;;4156973;28;20091;-68
2024/04/03 01:15:41;;;;;;;4.22;1.10;;;11.70;99.90;;;;;;4156857;28;20124;-60
2024/04/03 01:17:41;;;;;;;2.53;1.00;;;11.70;99.90;;;;;;4158964;28;20049;-60
2024/04/03 01:19:42;;;;;;;1.83;1.20;;;11.70;99.90;;;;;;4156020;28;20041;-60
2024/04/03 01:21:42;;;;;;;4.68;1.77;;;11.70;99.90;;;;;;4152656;28;20060;-60
2024/04/03 01:23:43;;;;;;;2.22;1.10;;;11.70;99.90;;;;;;4157584;28;20041;-60
2024/04/03 01:25:43;;;;;;;2.65;1.40;;;11.70;99.90;;;;;;4154853;28;20124;-61
2024/04/03 01:27:44;;;;;;;3.80;1.25;;;11.70;99.90;;;;;;4157885;28;20042;-60
2024/04/03 01:29:46;;;;;;;3.50;1.15;;;11.70;99.90;;;;;;4159955;28;20026;-60
2024/04/03 01:31:47;;;;;;;4.97;1.58;;;11.70;99.90;;;;;;4159403;28;20036;-60
2024/04/03 01:33:47;;;;;;;5.75;1.42;;;11.70;99.90;;;;;;4159628;28;20117;-60
2024/04/03 01:35:48;;;;;;;5.03;1.38;;;11.70;99.90;;;;;;4158717;28;20455;-60
2024/04/03 01:37:48;;;;;;;3.53;1.42;;;11.70;99.90;;;;;;4159529;28;20449;-61
2024/04/03 01:39:49;;;;;;;2.60;1.15;;;11.70;99.90;;;;;;4158821;28;20044;-61
2024/04/03 01:41:50;;;;;;;2.30;1.33;;;11.70;99.90;;;;;;4154062;28;20117;-60
2024/04/03 01:43:50;;;;;;;2.70;1.17;;;11.70;99.90;;;;;;4155793;28;20445;-61
2024/04/03 01:45:58;;;;;;;4.25;1.42;;;11.70;99.90;;;;;;4155850;28;20037;-60
2024/04/03 01:47:58;;;;;;;4.45;1.20;;;11.70;99.90;;;;;;4157541;28;20574;-61
2024/04/03 01:49:59;;;;;;;3.80;1.40;;;11.70;99.90;;;;;;4158314;28;20025;-61
2024/04/03 01:52:00;;;;;;;3.13;1.27;;;11.60;99.90;;;;;;4158290;28;20053;-62
2024/04/03 01:54:00;;;;;;;5.13;1.60;;;11.70;99.90;;;;;;4159467;28;20180;-62
2024/04/03 01:56:01;;;;;;;4.68;1.23;;;11.70;99.90;;;;;;4155366;28;20033;-64
2024/04/03 01:58:02;;;;;;;3.47;1.50;;;11.70;99.90;;;;;;4155954;28;20057;-61
2024/04/03 02:00:03;;;;;;;6.15;1.67;;;11.70;99.90;;;;;;4159282;28;20448;-61
2024/04/03 02:02:03;;;;;;;5.05;1.95;;;11.70;99.90;;;;;;4159174;28;20026;-61
2024/04/03 02:04:04;;;;;;;3.25;1.10;;;11.70;99.90;;;;;;4159933;28;20030;-60
2024/04/03 02:06:05;;;;;;;7.28;1.52;;;11.70;99.90;;;;;;4159996;28;20132;-61
2024/04/03 02:08:05;;;;;;;5.07;1.60;;;11.70;99.90;;;;;;4161047;28;20041;-61
2024/04/03 02:10:06;;;;;;;5.95;1.70;;;11.60;99.90;;;;;;4160860;28;20116;-63
2024/04/03 02:12:07;;;;;;;6.40;1.83;;;11.60;99.90;;;;;;4160833;28;20192;-60
2024/04/03 02:14:12;;;;;;;3.08;1.75;;;11.60;99.90;;;;;;4159571;28;20033;-61
2024/04/03 02:16:12;;;;;;;4.40;1.80;;;11.70;99.90;;;;;;4174687;28;20033;-60
2024/04/03 02:18:13;;;;;;;3.58;1.40;;;11.60;99.90;;;;;;4160978;28;20063;-61
2024/04/03 02:20:14;;;;;;;1.92;1.25;;;11.60;99.90;;;;;;4160520;28;20037;-60
2024/04/03 02:22:14;;;;;;;3.55;1.27;;;11.70;99.90;;;;;;4188694;28;20039;-60
2024/04/03 02:24:15;;;;;;;3.17;1.25;;;11.70;99.90;;;;;;4157049;28;20132;-73
2024/04/03 02:26:16;;;;;;;3.92;1.58;;;11.70;99.90;;;;;;4160155;28;20034;-64
2024/04/03 02:28:16;;;;;;;5.25;1.90;;;11.70;99.90;;;;;;4160442;28;20037;-64
2024/04/03 02:30:17;;;;;;;3.55;1.10;;;11.70;99.90;;;;;;4159144;28;20040;-64
2024/04/03 02:32:17;;;;;;;2.00;1.05;;;11.70;99.90;;;;;;4157812;28;22070;-64
2024/04/03 02:34:18;;;;;;;2.90;1.55;;;11.70;99.90;;;;;;4160698;28;20033;-64
2024/04/03 02:36:18;;;;;;;6.15;1.58;;;11.70;99.90;;;;;;4159373;28;20046;-64
2024/04/03 02:38:19;;;;;;;3.35;1.50;;;11.70;99.90;;;;;;4160482;28;20545;-64
2024/04/03 02:40:20;;;;;;;3.20;1.33;;;11.70;99.90;;;;;;4159962;28;20025;-64
2024/04/03 02:42:20;;;;;;;2.33;1.10;;;11.70;99.90;;;;;;4157884;28;20088;-64
2024/04/03 02:44:21;;;;;;;2.40;1.13;;;11.70;99.90;;;;;;4158355;28;20057;-64
2024/04/03 02:46:21;;;;;;;2.83;1.30;;;11.70;99.90;;;;;;4157926;28;20051;-64
2024/04/03 02:48:22;;;;;;;5.40;1.45;;;11.80;99.90;;;;;;4159790;28;20052;-64
2024/04/03 02:50:23;;;;;;;6.90;1.27;;;11.80;99.90;;;;;;4158108;28;20513;-64
2024/04/03 02:52:23;;;;;;;3.53;1.30;;;11.80;99.90;;;;;;4158665;28;20129;-64
2024/04/03 02:54:24;;;;;;;5.45;1.70;;;11.80;99.90;;;;;;4159433;28;20359;-64
2024/04/03 02:56:24;;;;;;;2.05;1.38;;;11.80;99.90;;;;;;4156962;28;20130;-64
2024/04/03 02:58:25;;;;;;;2.33;1.17;;;11.80;99.90;;;;;;4158683;28;20513;-64
2024/04/03 03:00:26;;;;;;;1.95;0.90;;;11.80;99.90;;;;;;4158441;28;20045;-64
2024/04/03 03:02:27;;;;;;;3.03;1.42;;;11.80;99.90;;;;;;4162630;28;20044;-64
2024/04/03 03:04:27;;;;;;;1.83;0.88;;;11.80;99.90;;;;;;4161432;28;20069;-64
2024/04/03 03:06:28;;;;;;;2.53;1.48;;;11.80;99.90;;;;;;4157619;28;20046;-64
2024/04/03 03:08:31;;;;;;;2.65;1.20;;;11.80;99.90;;;;;;4161509;28;20454;-66
2024/04/03 03:10:32;;;;;;;3.03;1.30;;;11.80;99.90;;;;;;4161493;28;20076;-65
2024/04/03 03:12:32;;;;;;;3.17;1.60;;;11.80;99.90;;;;;;4161569;28;20608;-67
2024/04/03 03:14:33;;;;;;;3.78;1.33;;;11.80;99.90;;;;;;4161640;28;20121;-65
2024/04/03 03:16:33;;;;;;;3.22;1.30;;;11.80;99.90;;;;;;4160012;28;20037;-65
2024/04/03 03:18:34;;;;;;;4.25;1.08;;;11.80;99.90;;;;;;4161530;28;20057;-64
2024/04/03 03:20:34;;;;;;;4.15;1.15;;;11.70;99.90;;;;;;4161069;28;20459;-64
2024/04/03 03:22:35;;;;;;;5.43;1.70;;;11.70;99.90;;;;;;4161712;28;20057;-64
2024/04/03 03:24:36;;;;;;;2.42;1.05;;;11.70;99.90;;;;;;4159583;28;20100;-64
2024/04/03 03:26:36;;;;;;;3.72;1.27;;;11.70;99.90;;;;;;4159295;28;20034;-64
2024/04/03 03:28:38;;;;;;;3.10;1.33;;;11.70;99.90;;;;;;4162371;28;20195;-65
2024/04/03 03:30:38;;;;;;;3.72;1.20;;;11.70;99.90;;;;;;4160342;28;20045;-65
2024/04/03 03:32:39;;;;;;;2.85;1.40;;;11.70;99.90;;;;;;4161734;28;20563;-64
2024/04/03 03:34:39;;;;;;;3.25;1.50;;;11.70;99.90;;;;;;4157918;28;20042;-61
2024/04/03 03:36:40;;;;;;;4.45;1.40;;;11.70;99.90;;;;;;4156527;28;20042;-74
2024/04/03 03:38:40;;;;;;;3.60;1.63;;;11.70;99.90;;;;;;4160725;28;20038;-74
2024/04/03 03:40:41;;;;;;;3.58;1.05;;;11.70;99.90;;;;;;4157267;28;20506;-74
2024/04/03 03:42:41;;;;;;;6.18;1.23;;;11.70;99.90;;;;;;4160043;28;20042;-75
2024/04/03 03:44:42;;;;;;;3.33;1.45;;;11.70;99.90;;;;;;4160220;28;20037;-74
2024/04/03 03:46:43;;;;;;;2.78;1.48;;;11.70;99.90;;;;;;4158119;28;20037;-74
2024/04/03 03:53:32;;;;;;;3.85;1.13;;;11.70;99.90;;;;;;4159537;28;20056;-70
2024/04/03 03:55:33;;;;;;;2.83;1.25;;;11.60;99.90;;;;;;4159306;28;20366;-74
2024/04/03 03:57:34;;;;;;;6.78;1.95;;;11.60;99.90;;;;;;4158826;28;20103;-72
2024/04/03 03:59:34;;;;;;;3.25;1.58;;;11.60;99.90;;;;;;4161413;28;20038;-74
2024/04/03 04:01:35;;;;;;;2.60;1.23;;;11.60;99.90;;;;;;4158505;28;20025;-74
2024/04/03 04:03:35;;;;;;;3.25;1.23;;;11.60;99.90;;;;;;4160797;28;20117;-73
2024/04/03 04:05:36;;;;;;;2.28;1.20;;;11.60;99.90;;;;;;4158078;28;20438;-74
2024/04/03 04:07:37;;;;;;;3.35;1.35;;;11.60;99.90;;;;;;4160231;28;20384;-74
2024/04/03 04:09:37;;;;;;;2.35;1.33;;;11.60;99.90;;;;;;4160626;28;20030;-73
2024/04/03 04:11:38;;;;;;;2.47;1.30;;;11.60;99.90;;;;;;4159793;28;20398;-74
2024/04/03 04:13:38;;;;;;;7.20;1.33;;;11.50;99.90;;;;;;4160364;28;20041;-74
2024/04/03 04:15:39;;;;;;;3.90;1.30;;;11.60;99.90;;;;;;4157259;28;20038;-73
2024/04/03 04:17:39;;;;;;;4.90;1.60;;;11.60;99.90;;;;;;4160199;28;20030;-74
2024/04/03 04:19:40;;;;;;;4.88;1.27;;;11.50;99.90;;;;;;4157206;28;20041;-74
2024/04/03 04:21:41;;;;;;;8.65;1.83;;;11.60;99.90;;;;;;4159790;28;20029;-74
2024/04/03 04:23:41;;;;;;;5.05;1.70;;;11.50;99.90;;;;;;4159880;28;20041;-74
2024/04/03 04:25:52;;;;;;;3.38;1.60;;;11.50;99.90;;;;;;4159561;28;20079;-74
2024/04/03 04:27:52;;;;;;;6.13;1.73;;;11.50;99.90;;;;;;4159782;28;20045;-74
2024/04/03 04:29:53;;;;;;;5.15;1.73;;;11.50;99.90;;;;;;4161182;28;20033;-74
2024/04/03 04:31:54;;;;;;;6.68;1.90;;;11.40;99.90;;;;;;4159683;28;20041;-74
2024/04/03 04:33:54;;;;;;;5.43;2.10;;;11.40;99.90;;;;;;4156527;28;20474;-74
2024/04/03 04:35:56;;;;;;;3.00;1.58;;;11.50;99.90;;;;;;4159653;28;20033;-74
2024/04/03 04:37:56;;;;;;;8.02;2.22;;;11.40;99.90;;;;;;4159961;28;20029;-74
2024/04/03 04:39:57;;;;;;;6.28;2.50;;;11.40;99.90;;;;;;4160473;28;20447;-74
2024/04/03 04:41:58;;;;;;;4.55;1.67;;;11.40;99.90;;;;;;4160062;28;20048;-73
2024/04/03 04:43:58;;;;;;;6.25;2.03;;;11.40;99.90;;;;;;4161132;28;20045;-74
2024/04/03 04:46:03;;;;;;;7.80;2.65;;;11.40;99.90;;;;;;4159041;28;20030;-60
2024/04/03 04:48:05;;;;;;;6.20;2.17;;;11.40;99.90;;;;;;4158906;28;20090;-61
2024/04/03 04:50:09;;;;;;;4.18;1.73;;;11.40;99.90;;;;;;4156528;28;20038;-61
2024/04/03 04:52:10;;;;;;;5.72;1.77;;;11.40;99.90;;;;;;4158736;28;20502;-61
2024/04/03 04:54:11;;;;;;;9.02;2.10;;;11.40;99.90;;;;;;4159006;28;20032;-61
2024/04/03 04:56:12;;;;;;;6.63;2.00;;;11.40;99.90;;;;;;4157567;28;20169;-60
2024/04/03 04:58:12;;;;;;;7.32;2.45;;;11.40;99.90;;;;;;4156211;28;20406;-60
2024/04/03 05:00:13;;;;;;;7.20;2.45;;;11.40;99.90;;;;;;4153092;28;20034;-61
2024/04/03 05:02:13;;;;;;;3.45;1.70;;;11.40;99.90;;;;;;4157151;28;20060;-60
2024/04/03 05:04:14;;;;;;;4.15;1.92;;;11.40;99.90;;;;;;4154260;28;20422;-60
2024/04/03 05:06:16;;;;;;;5.05;2.15;;;11.40;99.90;;;;;;4153704;28;20049;-60
2024/04/03 05:08:18;;;;;;;5.63;2.20;;;11.40;99.90;;;;;;4159066;28;20040;-60
2024/04/03 05:10:18;;;;;;;5.13;2.23;;;11.40;99.90;;;;;;4158732;28;20025;-61
2024/04/03 05:12:19;;;;;;;4.00;1.90;;;11.40;99.90;;;;;;4159262;28;20771;-61
2024/04/03 05:14:19;;;;;;;5.30;2.40;;;11.40;99.90;;;;;;4158358;28;20430;-60
2024/04/03 05:16:21;;;;;;;7.60;1.95;;;11.40;99.90;;;;;;4158718;28;20084;-60
2024/04/03 05:18:22;;;;;;;5.68;2.22;;;11.40;99.90;;;;;;4158361;28;20506;-60
2024/04/03 05:20:22;;;;;;;8.50;2.90;;;11.40;99.90;;;;;;4158159;28;20048;-60
2024/04/03 05:22:23;;;;;;;6.47;2.38;;;11.30;99.90;;;;;;4157102;28;20236;-61
2024/04/03 05:24:23;;;;;;;6.25;2.70;;;11.40;99.90;;;;;;4158801;28;20475;-61
2024/04/03 05:26:24;;;;;;;8.43;2.78;;;11.40;99.90;;;;;;4170796;28;20029;-61
2024/04/03 05:28:30;;;;;;;6.85;2.78;;;11.40;99.90;;;;;;4155714;28;20052;-61
2024/04/03 05:30:34;;;;;;;5.63;2.47;;;11.40;99.90;;;;;;4151632;28;20335;-65
2024/04/03 05:32:35;;;;;;;8.45;3.00;;;11.40;99.90;;;;;;4180707;28;20128;-61
2024/04/03 05:34:35;;;;;;;4.53;2.22;;;11.40;99.90;;;;;;4159262;28;20509;-61
2024/04/03 05:36:36;;;;;;;6.57;2.30;;;11.40;99.90;;;;;;4156633;28;20120;-61
2024/04/03 05:38:38;;;;;;;7.10;4.72;;;11.40;99.90;;;;;;4155643;28;20095;-61
2024/04/03 05:40:38;;;;;;;5.63;2.85;;;11.40;99.90;;;;;;4151628;28;20482;-61
2024/04/03 05:42:39;;;;;;;8.52;3.05;;;11.40;99.90;;;;;;4154788;28;20156;-61
2024/04/03 05:44:40;;;;;;;7.57;2.65;;;11.40;99.90;;;;;;4156268;28;20030;-61
2024/04/03 05:46:40;;;;;;;4.32;2.65;;;11.40;99.90;;;;;;4157612;28;20032;-61
2024/04/03 05:48:41;;;;;;;8.18;2.50;;;11.40;99.90;;;;;;4153842;28;20060;-61
2024/04/03 05:50:42;;;;;;;6.70;2.63;;;11.40;99.90;;;;;;4154465;28;20111;-61
2024/04/03 05:52:42;;;;;;;4.30;2.30;;;11.50;99.90;;;;;;4151074;28;20030;-61
2024/04/03 05:54:43;;;;;;;4.50;1.90;;;11.40;99.90;;;;;;4154677;28;20068;-64
2024/04/03 05:56:43;;;;;;;7.03;2.67;;;11.40;99.90;;;;;;4155886;28;20049;-73
2024/04/03 05:58:44;;;;;;;5.07;2.28;;;11.50;99.90;;;;;;4156149;28;20056;-73
2024/04/03 06:00:47;;;;;;;5.88;2.40;;;11.40;99.90;;;;;;4154848;28;20064;-74
2024/04/03 06:02:48;;;;;;;6.35;2.53;;;11.40;99.90;;;;;;4157961;28;20394;-74
2024/04/03 06:04:48;;;;;;;6.03;2.40;;;11.50;99.90;;;;;;4158348;28;20036;-73
2024/04/03 06:06:50;;;;;;;5.63;2.13;;;11.50;99.90;;;;;;4158328;28;20041;-74
2024/04/03 06:08:51;;;;;;;6.35;2.45;;;11.50;99.90;;;;;;4159341;28;20033;-73
2024/04/03 06:10:52;;;;;;;4.75;1.85;;;11.50;99.90;;;;;;4157578;28;20375;-73
2024/04/03 06:12:52;;;;;;;4.80;2.25;;;11.50;99.90;;;;;;4159851;28;20065;-73
2024/04/03 06:14:53;;;;;;;3.55;1.77;;;11.50;99.90;;;;;;4156182;28;20036;-73
2024/04/03 06:16:54;;;;;;;2.30;1.58;;;11.50;99.90;;;;;;4157622;28;20033;-73
2024/04/03 06:18:55;;;;;;;5.15;1.75;;;11.50;99.90;;;;;;4156966;28;20041;-73
2024/04/03 06:20:55;;;;;;;5.85;1.88;;;11.50;99.90;;;;;;4158239;28;20026;-73
2024/04/03 06:22:56;;;;;;;5.47;2.50;;;11.50;99.90;;;;;;4158662;28;20116;-73
2024/04/03 06:24:56;;;;;;;7.28;2.35;;;11.60;99.90;;;;;;4158785;28;20045;-73
2024/04/03 06:26:57;;;;;;;4.20;2.08;;;11.50;99.90;;;;;;4156067;28;20124;-74
2024/04/03 06:29:01;;;;;;;6.53;2.30;;;11.50;99.90;;;;;;4156959;28;20132;-73
2024/04/03 06:31:02;;;;;;;6.82;2.35;;;11.50;99.90;;;;;;4158053;28;20526;-73
2024/04/03 06:33:02;;;;;;;8.00;2.10;;;11.50;99.90;;;;;;4159325;28;20057;-71
2024/04/03 06:35:03;;;;;;;5.80;2.03;;;11.50;99.90;;;;;;4148332;28;20524;-74
2024/04/03 06:37:04;;;;;;;3.50;1.73;;;11.50;99.90;;;;;;4151917;28;20041;-73
2024/04/03 06:39:06;;;;;;;5.15;1.92;;;11.50;99.90;;;;;;4155920;28;20029;-72
2024/04/03 06:41:06;;;;;;;6.63;2.47;;;11.50;99.90;;;;;;4158629;28;20409;-67
2024/04/03 06:43:08;;;;;;;5.10;2.00;;;11.50;99.90;;;;;;4165067;28;20343;-67
2024/04/03 06:45:08;;;;;;;6.95;2.35;;;11.50;99.90;;;;;;4161619;28;20044;-68
2024/04/03 06:47:09;;;;;;;5.20;2.08;;;11.50;99.90;;;;;;4162624;28;20034;-67
2024/04/03 06:49:11;;;;;;;7.68;2.60;;;11.50;99.90;;;;;;4162607;28;20042;-68
2024/04/03 06:51:11;;;;;;;7.67;2.23;;;11.50;99.90;;;;;;4162714;28;20030;-68
2024/04/03 06:53:12;;;;;;;4.97;2.20;;;11.50;99.90;;;;;;4164399;28;20278;-68
2024/04/03 06:55:13;;;;;;;4.13;1.95;;;11.50;99.90;;;;;;4161220;28;20448;-68
2024/04/03 06:57:13;;;;;;;5.90;2.08;;;11.50;99.90;;;;;;4161669;28;20057;-68
2024/04/03 06:59:14;;;;;;;5.57;2.10;;;11.50;99.90;;;;;;4163518;28;20121;-68
2024/04/03 07:01:16;;;;;;;3.80;2.10;;;11.50;99.90;;;;;;4161320;28;20114;-67
2024/04/03 07:03:17;;;;;;;4.90;2.17;;;11.50;99.90;;;;;;4159153;28;20398;-68
2024/04/03 07:05:17;;;;;;;4.57;1.90;;;11.50;99.90;;;;;;4158440;28;20384;-65
2024/04/03 07:07:19;;;;;;;7.57;1.90;;;11.50;99.90;;;;;;4164135;28;20128;-67
2024/04/03 07:09:20;;;;;;;4.95;1.98;;;11.50;99.90;;;;;;4160141;28;20033;-65
2024/04/03 07:11:22;;;;;;;5.93;2.55;;;11.50;99.90;;;;;;4146170;28;20510;-65
2024/04/03 07:13:23;;;;;;;6.22;1.90;;;11.50;99.90;;;;;;4155445;28;20156;-65
2024/04/03 07:15:24;;;;;;;4.60;1.95;;;11.50;99.90;;;;;;4163386;28;20041;-59
2024/04/03 07:17:24;;;;;;;4.18;2.00;;;11.50;99.90;;;;;;4160726;28;20125;-65
2024/04/03 07:19:25;;;;;;;8.35;2.30;;;11.60;99.90;;;;;;4164512;28;20091;-60
2024/04/03 07:21:26;;;;;;;4.85;2.20;;;11.50;99.90;;;;;;4147450;28;20414;-71
2024/04/03 07:23:27;;;;;;;3.63;1.88;;;11.50;99.90;;;;;;4165861;28;20040;-67
2024/04/03 07:25:28;;;;;;;10.50;2.53;;;11.50;99.90;;;;;;4166333;28;20098;-60
2024/04/03 07:27:29;;;;;;;5.43;1.88;;;11.60;99.90;;;;;;4166276;28;20041;-65
2024/04/03 07:29:29;;;;;;;7.50;1.88;;;11.60;99.90;;;;;;4166600;28;20037;-66
2024/04/03 07:31:30;;;;;;;10.02;2.28;;;11.60;99.90;;;;;;4163154;28;20459;-60
2024/04/03 07:33:31;;;;;;;5.30;2.25;;;11.60;99.90;;;;;;4163453;28;20408;-64
2024/04/03 07:35:32;;;;;;;7.07;1.95;;;11.60;99.90;;;;;;4165129;28;20042;-64
2024/04/03 07:37:40;;;;;;;5.85;1.80;;;11.70;99.90;;;;;;4156667;28;20386;-65
2024/04/03 07:39:40;;;;;;;6.10;2.40;;;11.60;99.90;;;;;;4164857;28;20049;-65
2024/04/03 07:41:41;;;;;;;7.85;2.17;;;11.60;99.90;;;;;;4164216;28;20033;-59
2024/04/03 07:43:42;;;;;;;5.13;2.08;;;11.70;99.90;;;;;;4165307;28;20041;-65
2024/04/03 07:45:42;;;;;;;6.35;2.00;;;11.70;99.90;;;;;;4162939;28;20025;-68
2024/04/03 07:47:43;;;;;;;5.15;1.80;;;11.70;99.90;;;;;;4163794;28;20084;-68
2024/04/03 07:49:43;;;;;;;4.40;1.75;;;11.70;99.90;;;;;;4162317;28;20049;-68
2024/04/03 07:51:47;;;;;;;5.03;2.15;;;11.70;99.90;;;;;;4147238;28;20421;-67
2024/04/03 07:53:47;;;;;;;6.25;2.40;;;11.70;99.90;;;;;;4148105;28;20034;-67
2024/04/03 07:55:50;;;;;;;7.43;2.08;;;11.60;99.90;;;;;;4151493;28;20389;-67
2024/04/03 07:57:50;;;;;;;4.28;1.65;;;11.60;99.90;;;;;;4161735;28;20029;-67
2024/04/03 07:59:51;;;;;;;5.05;1.88;;;11.60;99.90;;;;;;4161938;28;20441;-67
2024/04/03 08:01:52;;;;;;;5.35;2.10;;;11.60;99.90;;;;;;4159470;28;20033;-67
2024/04/03 08:03:52;;;;;;;8.27;2.05;;;11.70;99.90;;;;;;4160826;28;20021;-67
2024/04/03 08:05:54;;;;;;;4.47;1.80;;;11.70;99.90;;;;;;4163163;28;20057;-67
2024/04/03 08:07:54;;;;;;;4.88;1.52;;;11.70;99.90;;;;;;4163723;28;20026;-67
2024/04/03 08:09:55;;;;;;;4.43;1.85;;;11.70;99.90;;;;;;4163750;28;20080;-66
2024/04/03 08:11:55;;;;;;;7.38;1.90;;;11.70;99.90;;;;;;4163251;28;20474;-67
2024/04/03 08:13:56;;;;;;;8.27;2.33;;;11.70;99.90;;;;;;4163025;28;20068;-67
2024/04/03 08:16:04;;;;;;;5.90;1.90;;;11.60;99.90;;;;;;4163729;28;20471;-64
2024/04/03 08:18:05;;;;;;;4.43;1.83;;;11.60;99.90;;;;;;4161947;28;20387;-64
2024/04/03 08:20:07;;;;;;;4.80;1.42;;;11.60;99.90;;;;;;4159729;28;20034;-69
2024/04/03 08:22:07;;;;;;;3.03;1.65;;;11.70;99.90;;;;;;4163470;28;20018;-59
2024/04/03 08:24:08;;;;;;;8.38;2.25;;;11.70;99.90;;;;;;4161851;28;20390;-60
2024/04/03 08:26:10;;;;;;;4.75;1.88;;;11.70;99.90;;;;;;4161692;28;20026;-60
2024/04/03 08:28:10;;;;;;;5.80;1.95;;;11.70;99.90;;;;;;4161487;28;20073;-66
2024/04/03 08:30:11;;;;;;;6.80;2.00;;;11.70;99.90;;;;;;4161893;28;20038;-69
2024/04/03 08:32:15;;;;;;;7.07;1.95;;;11.80;99.90;;;;;;4161566;28;20033;-64
2024/04/03 08:34:16;;;;;;;7.93;2.20;;;11.80;99.90;;;;;;4160333;28;20060;-60
2024/04/03 08:36:17;;;;;;;5.20;1.65;;;11.70;99.90;;;;;;4157723;28;20390;-64
2024/04/03 08:38:17;;;;;;;4.10;2.13;;;11.80;99.90;;;;;;4162931;28;20040;-67
2024/04/03 08:40:20;;;;;;;5.30;2.30;;;11.80;99.90;;;;;;4157125;28;20033;-60
2024/04/03 08:42:20;;;;;;;7.28;2.10;;;11.80;99.90;;;;;;4163370;28;20076;-60
2024/04/03 08:44:21;;;;;;;10.07;2.15;;;11.90;99.90;;;;;;4162196;28;20030;-66
2024/04/03 08:46:22;;;;;;;5.25;2.08;;;11.90;99.90;;;;;;4173697;28;20493;-59
2024/04/03 08:48:25;;;;;;;4.10;1.55;;;11.90;99.90;;;;;;4144547;28;20037;-59
2024/04/03 08:50:27;;;;;;;6.43;2.10;;;12.00;99.90;;;;;;4144965;28;20408;-70
2024/04/03 08:52:29;;;;;;;3.30;1.40;;;12.00;99.90;;;;;;4148199;28;20367;-64
2024/04/03 08:54:30;;;;;;;6.03;1.95;;;12.00;99.90;;;;;;4150883;28;20037;-64
2024/04/03 08:56:31;;;;;;;7.30;2.17;;;12.10;99.90;;;;;;4150300;28;20124;-64
2024/04/03 08:58:35;;;;;;;7.85;2.15;;;12.10;99.90;;;;;;4162331;28;20513;-65
2024/04/03 09:00:36;;;;;;;8.07;1.90;;;12.20;99.90;;;;;;4161135;28;20043;-60
2024/04/03 09:02:37;;;;;;;6.50;2.20;;;12.20;99.90;;;;;;4160231;28;20103;-69
2024/04/03 09:04:38;;;;;;;4.40;1.88;;;12.20;99.90;;;;;;4162693;28;20025;-66
2024/04/03 09:06:39;;;;;;;4.63;1.58;;;12.20;99.90;;;;;;4125602;28;20486;-65
2024/04/03 09:08:42;;;;;;;5.60;1.90;;;12.30;99.90;;;;;;4160908;28;20037;-66
2024/04/03 09:10:49;;;;;;;6.32;1.70;;;12.30;99.90;;;;;;4161484;28;20044;-72
2024/04/03 09:12:51;;;;;;;6.43;1.83;;;12.30;99.90;;;;;;4161569;28;20034;-72
2024/04/03 09:15:07;;;;;;;5.63;1.85;;;12.30;99.90;;;;;;4162587;28;20053;-72
2024/04/03 09:17:07;;;;;;;5.07;1.63;;;12.30;99.90;;;;;;4160593;28;20372;-66
2024/04/03 09:19:10;;;;;;;3.35;1.27;;;12.30;99.90;;;;;;4160433;28;20041;-67
2024/04/03 09:21:16;;;;;;;3.63;1.30;;;12.40;99.90;;;;;;4160659;28;20036;-60
2024/04/03 09:23:20;;;;;;;5.28;1.50;;;12.40;99.90;;;;;;4159521;28;20040;-60
2024/04/03 09:25:23;;;;;;;5.82;1.67;;;12.40;99.90;;;;;;4161495;28;20029;-59
2024/04/03 09:27:24;;;;;;;2.47;1.13;;;12.40;99.90;;;;;;4160469;28;20037;-66
2024/04/03 09:29:27;;;;;;;5.15;1.50;;;12.40;99.90;;;;;;4161697;28;20398;-70
2024/04/03 09:31:31;;;;;;;3.58;1.88;;;12.40;99.90;;;;;;4161498;28;20427;-59
2024/04/03 09:33:34;;;;;;;5.68;1.30;;;12.40;99.90;;;;;;4154182;28;20120;-65
2024/04/03 09:35:39;;;;;;;4.30;1.48;;;12.30;99.90;;;;;;4159015;28;20184;-69
2024/04/03 09:37:39;;;;;;;6.18;1.52;;;12.30;99.90;;;;;;4162142;28;20037;-60
2024/04/03 09:39:40;;;;;;;3.08;1.20;;;12.30;99.90;;;;;;4162480;28;20457;-65
2024/04/03 09:41:43;;;;;;;3.38;1.58;;;12.30;99.90;;;;;;4160969;28;20517;-67
2024/04/03 09:43:45;;;;;;;3.53;1.67;;;12.30;99.90;;;;;;4158154;28;20075;-72
2024/04/03 09:45:51;;;;;;;3.10;1.35;;;12.20;99.90;;;;;;4160407;28;20075;-73
2024/04/03 09:48:00;;;;;;;3.47;1.30;;;12.30;99.90;;;;;;4162417;28;20120;-70
2024/04/03 09:50:02;;;;;;;4.32;1.70;;;12.30;99.90;;;;;;4160686;28;20021;-64
2024/04/03 09:52:03;;;;;;;5.05;1.60;;;12.30;99.90;;;;;;4160667;28;20033;-70
2024/04/03 09:54:05;;;;;;;6.18;1.73;;;12.30;99.90;;;;;;4160007;28;20057;-59
2024/04/03 09:56:07;;;;;;;6.80;1.80;;;12.30;99.90;;;;;;4160185;28;20025;-60
2024/04/03 09:58:18;;;;;;;3.80;1.55;;;12.30;99.90;;;;;;4158855;28;20087;-73
2024/04/03 10:00:19;;;;;;;6.05;1.42;;;12.30;99.90;;;;;;4161847;28;20034;-66
2024/04/03 10:02:20;;;;;;;4.20;1.50;;;12.30;99.90;;;;;;4160057;28;20382;-65
2024/04/03 10:04:21;;;;;;;4.05;1.23;;;12.30;99.90;;;;;;4161352;28;20029;-73
2024/04/03 10:06:26;;;;;;;4.75;1.48;;;12.40;99.90;;;;;;4175302;28;20060;-72
2024/04/03 10:08:40;;;;;;;4.10;1.45;;;12.40;99.90;;;;;;4160022;28;20160;-66
2024/04/03 10:10:47;;;;;;;3.58;1.15;;;12.40;99.90;;;;;;4158660;28;20034;-71
2024/04/03 10:12:48;;;;;;;5.38;1.58;;;12.40;99.90;;;;;;4160913;28;20378;-71
2024/04/03 10:14:57;;;;;;;3.30;1.30;;;12.40;99.90;;;;;;4161625;28;20025;-71
2024/04/03 10:16:59;;;;;;;4.80;1.48;;;12.40;99.90;;;;;;4161510;28;20363;-70
2024/04/03 10:18:59;;;;;;;5.10;1.83;;;12.40;99.90;;;;;;4161609;28;20037;-73
2024/04/03 10:21:01;;;;;;;3.88;1.15;;;12.40;99.90;;;;;;4159087;28;20029;-73
2024/04/03 10:23:03;;;;;;;7.20;1.48;;;12.40;99.90;;;;;;4160396;28;20120;-73
2024/04/03 10:25:06;;;;;;;5.10;1.20;;;12.40;99.90;;;;;;4160851;28;20461;-72
2024/04/03 10:27:07;;;;;;;;;;;12.40;99.90;;;;;;4158118;28;20034;-72
2024/04/03 10:29:07;;;;;;;6.68;1.73;;;12.40;99.90;;;;;;4161370;28;20247;-73
2024/04/03 10:31:09;;;;;;;2.72;1.00;;;12.40;99.90;;;;;;4160560;28;20034;-73
2024/04/03 10:33:11;;;;;;;2.60;1.10;;;12.40;99.90;;;;;;4161776;28;20040;-72
2024/04/03 10:35:12;;;;;;;2.78;1.30;;;12.40;99.90;;;;;;4161653;28;20029;-72
2024/04/03 10:37:13;;;;;;;4.80;1.30;;;12.50;99.90;;;;;;4160599;28;20034;-71